Airfield :







YOU CAN JOIN US ON...

 
LOGIN :

Register | Disclaimer

   EN    FR    IT 

 









Legend :    VFR   Marginal VFR   IFR   Intensive IFR   Very Intensive IFR
Visi :
Ceiling :
>= 8 km
>= 3000ft
5 to 8 km
1000 to 3000 ft
1500m to 5 km
500 to 1000 ft
800 to 1500m
200 to 500 ft
< 800m
< 200 ft
Symbols :   Thunderstorms  Fog  Heavy snow  Heavy precipitations  Wind > 20 kt






- Airport Elevation : 234 ft
- IATA code : PBG


KPBG - Plattsburgh International

CURRENT METAR :
  • 090753Z AUTO 00000KT 10SM -RA OVC008 17/16 A2974 RMK AO2 RAB42 SLP071 P0001 T01720161

EXPIRED METARs :
  • 090653Z AUTO 34006KT 10SM OVC009 17/16 A2974 RMK AO2 SLP070 T01720161
  • 090553Z AUTO 35009KT 10SM OVC007 17/16 A2974 RMK AO2 CIG 005V009 SLP072 60001 T01720161 10222 20172 58004
  • 090534Z AUTO 01011KT 10SM OVC005 18/17 A2974 RMK AO2 T01780167

TAF KPBG
Valid from the 09 at 06:00 until the 10 at 06:00 UTC


090539Z 0906/1006 01010KT P6SM VCSH BKN004
FM091100 35008KT P6SM VCSH OVC015
FM092000 36009KT P6SM OVC020
KZBW FIR / North America



MET'MAP, your aeronautical weather chart ! - Copyright ORBIFLY December 2007 - Disclaimer

ORBIFLY MET'MAP TEAM :

Programming & Development : Alexandra Zaïnal
Original concept : Baudouin d'Aumeries
Technical & hardware support : Manuel Goepfert
Assistance : Marc-Olivier Méhu




SOURCES & CREDITS :

   NOAA